UNNT/OVB METAR and TAF weather

Enter ICAO airport designator
Station Type Date Time Source
UNNT METAR 2019/12/16 06:00 UTC NOAA

UNNT 160600Z 16003MPS 8000 -SN BKN032 M11/M13 Q1034 R25/490147 R34/490245 NOSIG RMK QFE765/1021


Station Type Date Time Source
UNNT Decoded METAR 2019/12/16 06:00 UTC NOAA

Station name not available
Dec 16, 2019 - 01:00 AM EST / 2019.12.16 0600 UTC
Wind: from the SSE (160 degrees) at 7 MPH (6 KT):0
Visibility: 4 mile(s):0
Sky conditions: mostly cloudy
Weather: light snow
Temperature: 12 F (-11 C)
Windchill: 1 F (-17 C):1
Dew Point: 8 F (-13 C)
Relative Humidity: 85%
Pressure (altimeter): 30.53 in. Hg (1034 hPa)
ob: UNNT 160600Z 16003MPS 8000 -SN BKN032 M11/M13 Q1034 R25/490147 R34/490245 NOSIG RMK QFE765/1021
cycle: 6

Station Type Date Time Source
UNNT TAF 2019/12/16 06:21 UTC NOAA

TAF UNNT 160500Z 1606/1706 16003G08MPS 5000 -SN BKN011
TEMPO 1606/1615 3100 -SN BKN005
BECMG 1612/1615 20005G10MPS

Example: see airport list